Time;durP1;ratioP1;P1;durP2;ratioP2;P2;SDS_P1;SDS_P2;PMS_P1;PMS_P2;Temp;Humidity;BMP_temperature;BMP_pressure;BME280_temperature;BME280_humidity;BME280_pressure;Samples;Min_cycle;Max_cycle;Signal;HPM_P1;HPM_P2
2022/07/31 00:04:14;;;;;;;;;;;;;;;20.23;46.10742;101817.1;;;;-81
2022/07/31 00:08:57;;;;;;;;;;;;;;;20.17;46.06738;101817.7;;;;-78
2022/07/31 00:26:12;;;;;;;;;;;;;;;20.05;46.96875;101812.7;;;;-80
2022/07/31 00:29:29;;;;;;;;;;;;;;;20.27;46.77441;101814.4;;;;-79
2022/07/31 00:44:36;;;;;;;;;;;;;;;20.31;46.4375;101787.6;;;;-78
2022/07/31 00:48:03;;;;;;;;;;;;;;;19.91;46.81738;101779.8;;;;-78
2022/07/31 00:53:10;;;;;;;;;;;;;;;19.87;46.65332;101766.2;;;;-78
2022/07/31 00:58:58;;;;;;;3.3;2.3;;;;;;;;;;;;;-78
2022/07/31 01:01:02;;;;;;;;;;;;;;;;;;;;;
2022/07/31 01:05:34;;;;;;;;;;;;;;;19.79;47.18066;101760.1;;;;-78
2022/07/31 01:13:07;;;;;;;;;;;;;;;20.15;46.71582;101760.4;;;;-78
2022/07/31 01:16:07;;;;;;;;;;;;;;;19.67;47.27148;101746.2;;;;-81
2022/07/31 01:21:12;;;;;;;;;;;;;;;19.73;47.16309;101766.3;;;;-80
2022/07/31 01:30:12;;;;;;;;;;;;;;;19.97;47.24512;101767.6;;;;-78
2022/07/31 01:33:45;;;;;;;;;;;;;;;19.69;47.5127;101763;;;;-79
2022/07/31 01:44:02;;;;;;;;;;;;;;;19.66;47.60059;101757.6;;;;-79
2022/07/31 01:48:52;;;;;;;;;;;;;;;19.62;47.6875;101752.2;;;;-79
2022/07/31 01:53:45;;;;;;;;;;;;;;;19.59;47.93652;101749.3;;;;-79
2022/07/31 01:58:47;;;;;;;;;;;;;;;19.57;47.69434;101743;;;;-78
2022/07/31 02:00:30;;;;;;;;;;;;;;;19.81;47.41113;101738.4;;;;-78
2022/07/31 02:08:07;;;;;;;;;;;;;;;19.74;47.6543;101722.6;;;;-78
2022/07/31 02:12:36;;;;;;;;;;;;;;;19.55;47.93066;101731.1;;;;-79
2022/07/31 02:29:38;;;;;;;4.2;2.6;;;;;;;;;;;;;-78
2022/07/31 02:38:56;;;;;;;;;;;;;;;19.52;49.14746;101717.2;;;;-78
2022/07/31 02:49:18;;;;;;;;;;;;;;;19.85;48.60156;101693.9;;;;-80
2022/07/31 02:51:59;;;;;;;;;;;;;;;19.47;48.81152;101691.4;;;;-81
2022/07/31 03:02:41;;;;;;;;;;;;;;;19.52;48.93164;101696.8;;;;-79
2022/07/31 03:07:51;;;;;;;;;;;;;;;;;;;;;
2022/07/31 03:14:13;;;;;;;;;;;;;;;19.93;48.23438;101672.3;;;;-79
2022/07/31 03:17:16;;;;;;;;;;;;;;;19.52;48.49902;101671.4;;;;-78
2022/07/31 03:22:28;;;;;;;;;;;;;;;19.48;49.36035;101670;;;;-79
2022/07/31 03:27:24;;;;;;;;;;;;;;;19.47;49.0625;101656.9;;;;-80
2022/07/31 03:29:12;;;;;;;3.8;2.4;;;;;;;;;;;;;-78
2022/07/31 03:32:11;;;;;;;;;;;;;;;19.47;49.3252;101653.9;;;;-78
2022/07/31 03:37:11;;;;;;;;;;;;;;;19.46;48.76563;101655.5;;;;-80
2022/07/31 03:42:38;;;;;;;;;;;;;;;;;;;;;
2022/07/31 03:47:38;;;;;;;;;;;;;;;19.79;49.83887;101658;;;;-77
2022/07/31 03:50:48;;;;;;;;;;;;;;;19.45;49.99414;101653;;;;-78
2022/07/31 03:56:35;;;;;;;;;;;;;;;19.69;50.10156;101644;;;;-76
2022/07/31 03:59:18;;;;;;;6.8;2.4;;;;;;;;;;;;;-79
2022/07/31 04:06:11;;;;;;;;;;;;;;;19.78;50.08789;101649.2;;;;-78
2022/07/31 04:08:52;;;;;;;;;;;;;;;19.45;50.09766;101654.7;;;;-80
2022/07/31 04:14:56;;;;;;;;;;;;;;;19.8;49.86328;101664.4;;;;-79
2022/07/31 04:19:18;;;;;;;;;;;;;;;19.43;51.14258;101662.1;;;;-79
2022/07/31 04:28:49;;;;;;;;;;;;;;;19.46;52.94531;101646.6;;;;-79
2022/07/31 04:39:11;;;;;;;;;;;;;;;19.52;55.13867;101635.3;;;;-80
2022/07/31 04:53:29;;;;;;;;;;;;;;;20;54.11523;101641.1;;;;-79
2022/07/31 04:56:55;;;;;;;;;;;;;;;19.65;55.42773;101638.2;;;;-79
2022/07/31 04:59:19;;;;;;;7.9;2.7;;;;;;;;;;;;;-79
2022/07/31 05:02:05;;;;;;;;;;;;;;;19.68;55.54492;101641.3;;;;-80
2022/07/31 05:06:59;;;;;;;;;;;;;;;19.72;55.43555;101634.3;;;;-78
2022/07/31 05:11:42;;;;;;;;;;;;;;;20.02;55.55371;101640.9;;;;-79
2022/07/31 05:25:08;;;;;;;;;;;;;;;19.89;57.57324;101635.7;;;;-81
2022/07/31 05:36:08;;;;;;;;;;;;;;;20.24;58.00781;101629.3;;;;-79
2022/07/31 05:43:52;;;;;;;;;;;;;;;20.06;58.22168;101636.1;;;;-78
2022/07/31 05:53:44;;;;;;;;;;;;;;;20.15;59.31543;101619.1;;;;-79
2022/07/31 05:59:34;;;;;;;9.1;2.8;;;;;;;;;;;;;-79
2022/07/31 06:04:01;;;;;;;;;;;;;;;20.24;59.85059;101610.4;;;;-78
2022/07/31 06:08:38;;;;;;;;;;;;;;;20.29;60.67773;101612.7;;;;-80
2022/07/31 06:13:36;;;;;;;;;;;;;;;20.35;60.42285;101608.2;;;;-79
2022/07/31 06:28:36;;;;;;;;;;;;;;;20.51;60.67285;101609.6;;;;-78
2022/07/31 06:29:17;;;;;;;5.6;3.2;;;;;;;;;;;;;-80
2022/07/31 06:33:14;;;;;;;;;;;;;;;20.56;60.99902;101607.9;;;;-79
2022/07/31 06:38:29;;;;;;;;;;;;;;;20.87;61.29199;101606.8;;;;-77
2022/07/31 06:46:08;;;;;;;;;;;;;;;20.74;62.49219;101611.2;;;;-78
2022/07/31 07:04:32;;;;;;;;;;;;;;;21.06;62.42285;101610.3;;;;-79
2022/07/31 07:09:51;;;;;;;;;;;;;;;21.09;62.2793;101603.4;;;;-78
2022/07/31 07:36:38;;;;;;;;;;;;;;;21.05;63.17383;101594.3;;;;-79
2022/07/31 07:50:00;;;;;;;;;;;;;;;20.77;63.77246;101593.1;;;;-81
2022/07/31 07:55:25;;;;;;;;;;;;;;;20.74;64.24609;101589.4;;;;-80
2022/07/31 07:59:13;;;;;;;;;;;;;;;21.11;64.42383;101591.6;;;;-78
2022/07/31 07:59:59;;;;;;;12.4;4.7;;;;;;;;;;;;;-78
2022/07/31 08:13:07;;;;;;;;;;;;;;;20.79;65.10645;101566.8;;;;-79
2022/07/31 08:18:06;;;;;;;;;;;;;;;21.02;66.42578;101584.5;;;;-79
2022/07/31 08:21:35;;;;;;;;;;;;;;;21.35;65.25586;101567.2;;;;-81
2022/07/31 08:29:36;;;;;;;13.8;5.7;;;;;;;;;;;;;-80
2022/07/31 08:53:21;;;;;;;;;;;;;;;21.83;66.1123;101569;;;;-80
2022/07/31 09:54:59;;;;;;;;;;;;;;;21.46;67.61816;101561.7;;;;-81
2022/07/31 10:24:04;;;;;;;;;;;;;;;21.58;68.11426;101552.7;;;;-79
2022/07/31 10:26:52;;;;;;;;;;;;;;;21.25;68.64453;101553.5;;;;-80
2022/07/31 10:29:55;;;;;;;8;4.6;;;;;;;;;;;;;-81
2022/07/31 10:31:58;;;;;;;;;;;;;;;21.22;68.74219;101550.3;;;;-80
2022/07/31 10:36:57;;;;;;;;;;;;;;;21.17;69.74609;101549.5;;;;-81
2022/07/31 10:41:59;;;;;;;;;;;;;;;21.12;69.73926;101546;;;;-80
2022/07/31 10:47:06;;;;;;;;;;;;;;;21.12;69.77344;101547.9;;;;-80
2022/07/31 10:52:02;;;;;;;;;;;;;;;21.09;69.30176;101547.4;;;;-80
2022/07/31 10:57:09;;;;;;;;;;;;;;;21.05;69.86426;101547;;;;-81
2022/07/31 10:59:56;;;;;;;7.6;3.8;;;;;;;;;;;;;-80
2022/07/31 11:02:11;;;;;;;;;;;;;;;20.99;69.65137;101547.3;;;;-82
2022/07/31 11:06:58;;;;;;;;;;;;;;;20.97;69.43262;101545.3;;;;-80
2022/07/31 11:16:56;;;;;;;;;;;;;;;20.88;69.89551;101540.6;;;;-80
2022/07/31 11:38:22;;;;;;;;;;;;;;;21.24;69.97559;101546;;;;-79
2022/07/31 11:47:00;;;;;;;;;;;;;;;20.87;70.36035;101536.2;;;;-82
2022/07/31 11:53:13;;;;;;;;;;;;;;;21.16;69.71094;101527.6;;;;-81
2022/07/31 11:57:29;;;;;;;;;;;;;;;20.9;70.81738;101538.2;;;;-83
2022/07/31 11:59:51;;;;;;;10.4;4.4;;;;;;;;;;;;;-83
2022/07/31 12:07:55;;;;;;;;;;;;;;;21.28;70.1748;101547.6;;;;-83
2022/07/31 12:10:44;;;;;;;;;;;;;;;20.91;70.53516;101544.3;;;;-83
2022/07/31 12:15:41;;;;;;;;;;;;;;;20.88;70.58887;101543.3;;;;-82
2022/07/31 12:29:59;;;;;;;8;3.9;;;;;;;;;;;;;-82
2022/07/31 12:30:46;;;;;;;;;;;;;;;20.84;70.94629;101545.4;;;;-78
2022/07/31 12:35:50;;;;;;;;;;;;;;;20.88;70.63379;101539.8;;;;-79
2022/07/31 12:40:54;;;;;;;;;;;;;;;20.98;70.26367;101532.3;;;;-79
2022/07/31 12:46:08;;;;;;;;;;;;;;;21.1;70.42969;101535;;;;-79
2022/07/31 12:51:11;;;;;;;;;;;;;;;;;;;;;
2022/07/31 12:55:48;;;;;;;;;;;;;;;21.32;70.75977;101530.8;;;;-79
2022/07/31 13:00:09;;;;;;;5.7;3.5;;;;;;;;;;;;;-81
2022/07/31 13:07:43;;;;;;;;;;;;;;;21.68;70.80664;101532.3;;;;-78
2022/07/31 13:11:32;;;;;;;;;;;;;;;21.42;71.01465;101528.8;;;;-80
2022/07/31 13:16:31;;;;;;;;;;;;;;;21.39;71.13574;101526.3;;;;-81
2022/07/31 13:21:54;;;;;;;;;;;;;;;;;;;;;
2022/07/31 13:30:18;;;;;;;7.9;3.8;;;;;;;;;;;;;-81
2022/07/31 13:45:38;;;;;;;;;;;;;;;21.63;71.65137;101516.2;;;;-79
2022/07/31 13:54:27;;;;;;;;;;;;;;;21.41;71.93457;101517.4;;;;-81
2022/07/31 13:59:19;;;;;;;;;;;;;;;21.4;72.5127;101515.1;;;;-81
2022/07/31 14:00:35;;;;;;;6.9;3.2;;;;;;;;;;;;;-80
2022/07/31 14:04:26;;;;;;;;;;;;;;;21.43;72.1416;101514.5;;;;-81
2022/07/31 14:09:34;;;;;;;;;;;;;;;21.44;72.08691;101509.7;;;;-81
2022/07/31 14:14:21;;;;;;;;;;;;;;;21.42;72.45898;101514.8;;;;-79
2022/07/31 14:19:34;;;;;;;;;;;;;;;21.38;72.30566;101515.3;;;;-80
2022/07/31 14:24:21;;;;;;;;;;;;;;;21.38;72.09961;101521.5;;;;-81
2022/07/31 14:29:26;;;;;;;;;;;;;;;21.37;72.63184;101513.8;;;;-79
2022/07/31 14:30:09;;;;;;;4.1;1.9;;;;;;;;;;;;;-79
2022/07/31 14:34:12;;;;;;;;;;;;;;;21.4;72.58105;101516.2;;;;-78
2022/07/31 14:39:29;;;;;;;;;;;;;;;21.47;72.4668;101509.3;;;;-80
2022/07/31 14:44:13;;;;;;;;;;;;;;;21.57;72.90332;101507.4;;;;-79
2022/07/31 14:54:29;;;;;;;;;;;;;;;21.77;73.16309;101510;;;;-81
2022/07/31 15:01:11;;;;;;;;;;;;;;;22.12;72.10352;101515.3;;;;-82
2022/07/31 15:05:04;;;;;;;;;;;;;;;21.66;72.80566;101512.1;;;;-82
2022/07/31 15:10:27;;;;;;;;;;;;;;;21.62;72.90039;101506.7;;;;-83
2022/07/31 15:15:08;;;;;;;;;;;;;;;21.6;72.70313;101508.2;;;;-82
2022/07/31 15:20:23;;;;;;;;;;;;;;;21.59;72.66895;101508.4;;;;-82
2022/07/31 15:25:28;;;;;;;;;;;;;;;21.8;72.05371;101509.3;;;;-80
2022/07/31 15:29:03;;;;;;;;;;;;;;;21.57;72.86914;101512.7;;;;-80
2022/07/31 15:30:21;;;;;;;7.6;2.8;;;;;;;;;;;;;-80
2022/07/31 15:34:23;;;;;;;;;;;;;;;21.57;73.24414;101507.7;;;;-79
2022/07/31 15:39:06;;;;;;;;;;;;;;;21.58;73.69043;101504.1;;;;-80
2022/07/31 15:44:02;;;;;;;;;;;;;;;21.61;74.11621;101503.2;;;;-80
2022/07/31 15:48:59;;;;;;;;;;;;;;;21.67;74.23828;101502.2;;;;-80
2022/07/31 15:54:15;;;;;;;;;;;;;;;21.77;74.35742;101506.5;;;;-79
2022/07/31 15:59:44;;;;;;;;;;;;;;;22.11;73.27637;101496.2;;;;-79
2022/07/31 16:00:11;;;;;;;13.7;4.3;;;;;;;;;;;;;-80
2022/07/31 16:04:19;;;;;;;;;;;;;;;;;;;;;
2022/07/31 16:09:22;;;;;;;;;;;;;;;21.83;73.58301;101501.9;;;;-81
2022/07/31 16:14:09;;;;;;;;;;;;;;;21.82;73.18359;101504.2;;;;-80
2022/07/31 16:19:15;;;;;;;;;;;;;;;21.79;73.20215;101503.3;;;;-79
2022/07/31 16:24:07;;;;;;;;;;;;;;;21.7;73.27832;101501.3;;;;-80
2022/07/31 16:34:03;;;;;;;;;;;;;;;21.64;72.50586;101495.4;;;;-81
2022/07/31 16:39:22;;;;;;;;;;;;;;;21.6;72.32813;101491.5;;;;-81
2022/07/31 16:44:16;;;;;;;;;;;;;;;21.53;71.75;101488.6;;;;-80
2022/07/31 16:49:33;;;;;;;;;;;;;;;21.68;71.16895;101484.2;;;;-79
2022/07/31 16:53:05;;;;;;;;;;;;;;;21.43;71.43652;101483.7;;;;-78
2022/07/31 16:57:50;;;;;;;;;;;;;;;21.39;71.24902;101490.5;;;;-80
2022/07/31 17:00:22;;;;;;;8.2;3.2;;;;;;;;;;;;;-81
2022/07/31 17:02:45;;;;;;;;;;;;;;;21.3;71.58691;101493.4;;;;-79
2022/07/31 17:07:46;;;;;;;;;;;;;;;21.23;71.26758;101493.8;;;;-80
2022/07/31 17:12:48;;;;;;;;;;;;;;;21.14;71.69727;101492.6;;;;-79
2022/07/31 17:17:50;;;;;;;;;;;;;;;21.06;71.5498;101493.4;;;;-80
2022/07/31 17:22:51;;;;;;;;;;;;;;;21.01;71.7002;101489.4;;;;-82
2022/07/31 17:27:45;;;;;;;;;;;;;;;20.96;71.91992;101485.9;;;;-79
2022/07/31 17:30:40;;;;;;;8.9;3;;;;;;;;;;;;;-79
2022/07/31 17:32:57;;;;;;;;;;;;;;;20.92;71.86719;101489;;;;-80
2022/07/31 17:38:01;;;;;;;;;;;;;;;20.86;72.36914;101486;;;;-80
2022/07/31 17:42:44;;;;;;;;;;;;;;;20.83;72.29688;101479.9;;;;-80
2022/07/31 17:47:46;;;;;;;;;;;;;;;20.83;71.98828;101486.1;;;;-79
2022/07/31 17:52:44;;;;;;;;;;;;;;;20.84;72.17188;101493.7;;;;-80
2022/07/31 17:57:44;;;;;;;;;;;;;;;20.84;72.06934;101497.6;;;;-81
2022/07/31 18:00:17;;;;;;;8;2.6;;;;;;;;;;;;;-79
2022/07/31 18:02:46;;;;;;;;;;;;;;;20.83;71.93359;101504.4;;;;-80
2022/07/31 18:07:44;;;;;;;;;;;;;;;20.82;71.90723;101502.8;;;;-80
2022/07/31 18:08:36;;;;;;;;;;;;;;;21.09;71.03125;101499;;;;-79
2022/07/31 18:12:41;;;;;;;;;;;;;;;20.81;71.66797;101503.2;;;;-80
2022/07/31 18:18:01;;;;;;;;;;;;;;;20.78;71.84473;101506.5;;;;-81
2022/07/31 18:23:32;;;;;;;;;;;;;;;20.76;71.54492;101512.4;;;;-79
2022/07/31 18:28:38;;;;;;;;;;;;;;;20.72;71.3125;101517.5;;;;-80
2022/07/31 18:30:20;;;;;;;11.1;3;;;;;;;;;;;;;-79
2022/07/31 18:33:36;;;;;;;;;;;;;;;20.69;71.41016;101526.3;;;;-79
2022/07/31 18:38:37;;;;;;;;;;;;;;;20.65;71.17578;101533;;;;-80
2022/07/31 18:43:40;;;;;;;;;;;;;;;20.56;71.45801;101528.7;;;;-80
2022/07/31 18:48:36;;;;;;;;;;;;;;;20.56;71.27637;101546.4;;;;-80
2022/07/31 18:53:51;;;;;;;;;;;;;;;20.53;70.87207;101546.5;;;;-82
2022/07/31 19:00:27;;;;;;;6.5;2.2;;;;;;;;;;;;;-83
2022/07/31 19:03:41;;;;;;;;;;;;;;;20.44;70.5752;101549.6;;;;-82
2022/07/31 19:08:36;;;;;;;;;;;;;;;20.41;70.55957;101552.7;;;;-82
2022/07/31 19:13:52;;;;;;;;;;;;;;;20.37;70.57617;101553.9;;;;-82
2022/07/31 19:18:44;;;;;;;;;;;;;;;20.33;70.59082;101562.8;;;;-83
2022/07/31 19:23:42;;;;;;;;;;;;;;;20.28;70.9707;101574.2;;;;-82
2022/07/31 19:28:49;;;;;;;;;;;;;;;20.21;71.25488;101579.5;;;;-82
2022/07/31 19:30:32;;;;;;;4.9;2.3;;;;;;;;;;;;;-82
2022/07/31 19:33:58;;;;;;;;;;;;;;;20.16;71.09766;101582.7;;;;-84
2022/07/31 19:38:43;;;;;;;;;;;;;;;20.11;71.10156;101588.5;;;;-81
2022/07/31 19:43:34;;;;;;;;;;;;;;;20.07;71.06152;101595.5;;;;-81
2022/07/31 19:48:34;;;;;;;;;;;;;;;20.04;70.76172;101597.1;;;;-81
2022/07/31 19:53:43;;;;;;;;;;;;;;;19.98;70.85352;101598;;;;-82
2022/07/31 19:58:33;;;;;;;;;;;;;;;19.93;70.7002;101604.1;;;;-82
2022/07/31 20:00:29;;;;;;;5.9;3.3;;;;;;;;;;;;;-82
2022/07/31 20:03:33;;;;;;;;;;;;;;;19.9;70.6377;101612.1;;;;-82
2022/07/31 20:08:33;;;;;;;;;;;;;;;19.84;70.56152;101618.2;;;;-82
2022/07/31 20:13:38;;;;;;;;;;;;;;;19.81;70.57813;101623.8;;;;-82
2022/07/31 20:18:35;;;;;;;;;;;;;;;19.77;70.75391;101632.1;;;;-79
2022/07/31 20:23:45;;;;;;;;;;;;;;;19.72;70.61035;101638.9;;;;-79
2022/07/31 20:28:36;;;;;;;;;;;;;;;19.69;70.47949;101634.4;;;;-79
2022/07/31 20:30:31;;;;;;;5.6;3;;;;;;;;;;;;;-78
2022/07/31 20:33:37;;;;;;;;;;;;;;;19.67;70.63574;101638.1;;;;-79
2022/07/31 20:38:35;;;;;;;;;;;;;;;19.64;70.34766;101640;;;;-79
2022/07/31 20:43:33;;;;;;;;;;;;;;;19.61;70.33105;101647.2;;;;-80
2022/07/31 20:48:36;;;;;;;;;;;;;;;19.58;70.29102;101645.6;;;;-81
2022/07/31 20:53:38;;;;;;;;;;;;;;;19.56;70.09766;101648.4;;;;-79
2022/07/31 20:58:37;;;;;;;;;;;;;;;19.54;69.90039;101651;;;;-81
2022/07/31 21:00:54;;;;;;;;;;;;;;;;;;;;;
2022/07/31 21:03:46;;;;;;;;;;;;;;;19.51;69.89648;101650.1;;;;-80
2022/07/31 21:08:34;;;;;;;;;;;;;;;19.5;69.80371;101655.4;;;;-79
2022/07/31 21:13:37;;;;;;;;;;;;;;;19.46;69.77441;101653.6;;;;-79
2022/07/31 21:18:38;;;;;;;;;;;;;;;19.44;69.84082;101655.1;;;;-79
2022/07/31 21:23:32;;;;;;;;;;;;;;;19.42;70.07422;101663;;;;-80
2022/07/31 21:28:33;;;;;;;;;;;;;;;19.41;70.23145;101669.2;;;;-78
2022/07/31 21:30:33;;;;;;;3.5;1.9;;;;;;;;;;;;;-79
2022/07/31 21:33:41;;;;;;;;;;;;;;;19.38;70.4082;101673.3;;;;-80
2022/07/31 21:38:41;;;;;;;;;;;;;;;19.37;70.31543;101674.4;;;;-80
2022/07/31 21:43:37;;;;;;;;;;;;;;;19.32;70.34277;101668.6;;;;-79
2022/07/31 21:48:34;;;;;;;;;;;;;;;19.3;70.28223;101671;;;;-80
2022/07/31 21:53:44;;;;;;;;;;;;;;;19.26;70.14063;101670.5;;;;-78
2022/07/31 21:58:36;;;;;;;;;;;;;;;19.26;70.01465;101674.8;;;;-79
2022/07/31 22:00:36;;;;;;;3.4;1.7;;;;;;;;;;;;;-79
2022/07/31 22:03:35;;;;;;;;;;;;;;;19.25;69.87891;101668.4;;;;-80
2022/07/31 22:08:33;;;;;;;;;;;;;;;19.23;69.78418;101670.9;;;;-79
2022/07/31 22:13:40;;;;;;;;;;;;;;;19.21;69.64355;101669.5;;;;-79
2022/07/31 22:18:33;;;;;;;;;;;;;;;19.19;69.40625;101672.2;;;;-79
2022/07/31 22:23:35;;;;;;;;;;;;;;;19.19;69.36914;101672.7;;;;-79
2022/07/31 22:28:32;;;;;;;;;;;;;;;19.18;69.19922;101682;;;;-78
2022/07/31 22:30:39;;;;;;;2.8;1.8;;;;;;;;;;;;;-79
2022/07/31 22:33:33;;;;;;;;;;;;;;;19.17;69.07227;101689;;;;-81
2022/07/31 22:38:33;;;;;;;;;;;;;;;19.16;69.07227;101686.2;;;;-80
2022/07/31 22:43:33;;;;;;;;;;;;;;;19.15;69.04785;101689;;;;-79
2022/07/31 22:48:34;;;;;;;;;;;;;;;19.14;68.98828;101696.2;;;;-80
2022/07/31 22:53:34;;;;;;;;;;;;;;;19.12;68.93066;101703.1;;;;-81
2022/07/31 22:58:35;;;;;;;;;;;;;;;19.12;68.83984;101708;;;;-80
2022/07/31 23:00:43;;;;;;;3.6;1.9;;;;;;;;;;;;;-81
2022/07/31 23:03:32;;;;;;;;;;;;;;;19.12;68.94043;101710.8;;;;-81
2022/07/31 23:08:33;;;;;;;;;;;;;;;19.11;68.84863;101715.6;;;;-80
2022/07/31 23:13:32;;;;;;;;;;;;;;;19.1;68.76758;101721.3;;;;-81
2022/07/31 23:18:36;;;;;;;;;;;;;;;19.09;68.75684;101722.5;;;;-80
2022/07/31 23:23:35;;;;;;;;;;;;;;;19.06;68.7627;101722.9;;;;-79
2022/07/31 23:28:32;;;;;;;;;;;;;;;19.06;68.7832;101718.3;;;;-80
2022/07/31 23:30:46;;;;;;;2.8;1.5;;;;;;;;;;;;;-80
2022/07/31 23:33:32;;;;;;;;;;;;;;;19.04;68.63379;101717;;;;-81
2022/07/31 23:38:38;;;;;;;;;;;;;;;19.02;68.55273;101714.3;;;;-81
2022/07/31 23:43:32;;;;;;;;;;;;;;;19.03;68.49609;101717.3;;;;-80
2022/07/31 23:48:32;;;;;;;;;;;;;;;19.02;68.61914;101716.5;;;;-78
2022/07/31 23:53:32;;;;;;;;;;;;;;;19;68.41309;101717.9;;;;-81
2022/07/31 23:58:34;;;;;;;;;;;;;;;19;68.68457;101727.5;;;;-81
